Time;durP1;ratioP1;P1;durP2;ratioP2;P2;SDS_P1;SDS_P2;PMS_P1;PMS_P2;Temp;Humidity;BMP_temperature;BMP_pressure;BME280_temperature;BME280_humidity;BME280_pressure;Samples;Min_cycle;Max_cycle;Signal;HPM_P1;HPM_P2
2022/06/15 00:01:25;;;;;;;3.75;3.35;;;;;;;;;;4993764;28;20415;-68
2022/06/15 00:03:52;;;;;;;4.85;3.15;;;;;;;;;;4994790;28;20054;-68
2022/06/15 00:06:24;;;;;;;5.03;2.90;;;;;;;;;;4995176;28;20046;-68
2022/06/15 00:08:54;;;;;;;3.30;3.00;;;;;;;;;;5007452;28;20077;-68
2022/06/15 00:11:23;;;;;;;4.65;3.13;;;;;;;;;;5014247;28;20056;-68
2022/06/15 00:13:50;;;;;;;8.32;3.70;;;;;;;;;;5014232;28;20057;-68
2022/06/15 00:16:17;;;;;;;4.47;3.90;;;;;;;;;;5014304;28;20050;-68
2022/06/15 00:18:45;;;;;;;3.92;3.20;;;;;;;;;;5014000;28;20500;-68
2022/06/15 00:21:13;;;;;;;5.40;2.88;;;;;;;;;;5012498;28;20112;-68
2022/06/15 00:23:40;;;;;;;5.07;3.60;;;;;;;;;;4999799;28;20050;-68
2022/06/15 00:26:06;;;;;;;6.85;3.50;;;;;;;;;;5014209;28;20428;-68
2022/06/15 00:28:34;;;;;;;3.45;3.10;;;;;;;;;;5002486;28;20457;-68
2022/06/15 00:31:01;;;;;;;7.35;3.70;;;;;;;;;;4994560;28;20054;-68
2022/06/15 00:33:34;;;;;;;5.82;3.10;;;;;;;;;;4994343;28;20104;-68
2022/06/15 00:36:21;;;;;;;4.97;3.30;;;;;;;;;;4994442;28;20054;-67
2022/06/15 00:38:55;;;;;;;4.95;3.40;;;;;;;;;;4994247;28;20059;-68
2022/06/15 00:41:28;;;;;;;3.70;3.40;;;;;;;;;;4994050;28;20433;-67
2022/06/15 00:44:22;;;;;;;4.63;3.88;;;;;;;;;;4994247;28;20054;-67
2022/06/15 00:46:54;;;;;;;4.35;3.08;;;;;;;;;;4993852;28;20047;-68
2022/06/15 00:49:22;;;;;;;9.23;3.85;;;;;;;;;;4993727;28;20046;-68
2022/06/15 00:51:51;;;;;;;4.68;3.78;;;;;;;;;;4994580;28;20100;-69
2022/06/15 00:54:18;;;;;;;4.57;3.78;;;;;;;;;;4977349;28;20050;-68
2022/06/15 00:56:44;;;;;;;6.40;3.90;;;;;;;;;;4993147;28;20097;-69
2022/06/15 00:59:16;;;;;;;5.70;3.58;;;;;;;;;;5004447;28;20046;-68
2022/06/15 01:01:43;;;;;;;7.07;3.80;;;;;;;;;;5012311;28;20054;-68
2022/06/15 01:04:09;;;;;;;6.30;3.88;;;;;;;;;;5012348;28;20398;-68
2022/06/15 01:06:55;;;;;;;8.20;3.85;;;;;;;;;;5012048;28;20564;-67
2022/06/15 01:09:27;;;;;;;6.20;3.63;;;;;;;;;;5012083;28;20119;-68
2022/06/15 01:12:12;;;;;;;6.22;3.90;;;;;;;;;;5012173;28;20101;-68
2022/06/15 01:14:47;;;;;;;6.75;3.45;;;;;;;;;;5013106;28;20108;-68
2022/06/15 01:17:48;;;;;;;6.30;3.65;;;;;;;;;;5013397;28;20081;-68
2022/06/15 01:20:33;;;;;;;7.75;3.80;;;;;;;;;;5012820;28;20054;-68
2022/06/15 01:23:11;;;;;;;7.38;4.35;;;;;;;;;;5011449;28;20401;-68
2022/06/15 01:25:42;;;;;;;5.70;3.63;;;;;;;;;;5013166;28;20058;-68
2022/06/15 01:28:47;;;;;;;4.20;3.50;;;;;;;;;;5011927;28;20049;-68
2022/06/15 01:31:25;;;;;;;6.43;3.45;;;;;;;;;;4971365;28;20070;-68
2022/06/15 01:34:00;;;;;;;5.93;3.72;;;;;;;;;;4956743;28;20097;-68
2022/06/15 01:37:02;;;;;;;6.15;4.15;;;;;;;;;;4996565;28;20053;-67
2022/06/15 01:39:50;;;;;;;6.55;4.00;;;;;;;;;;5011294;28;20077;-68
2022/06/15 01:42:31;;;;;;;5.32;3.92;;;;;;;;;;5011629;28;20046;-68
2022/06/15 01:45:07;;;;;;;4.13;3.72;;;;;;;;;;5011575;28;20057;-68
2022/06/15 01:47:34;;;;;;;4.20;3.80;;;;;;;;;;5010327;28;20050;-69
2022/06/15 01:50:05;;;;;;;8.85;4.10;;;;;;;;;;4991475;28;20497;-68
2022/06/15 01:52:36;;;;;;;4.88;3.58;;;;;;;;;;4991518;28;20054;-68
2022/06/15 01:55:12;;;;;;;4.68;3.60;;;;;;;;;;4991714;28;20059;-68
2022/06/15 01:57:39;;;;;;;5.97;3.92;;;;;;;;;;4992835;28;20058;-67
2022/06/15 02:00:07;;;;;;;6.15;3.92;;;;;;;;;;5010788;28;20467;-68
2022/06/15 02:02:51;;;;;;;8.02;3.95;;;;;;;;;;5010842;28;20049;-68
2022/06/15 02:05:39;;;;;;;4.78;3.83;;;;;;;;;;5011321;28;20045;-68
2022/06/15 02:08:15;;;;;;;5.43;4.25;;;;;;;;;;5000690;28;20042;-67
2022/06/15 02:10:54;;;;;;;5.95;4.18;;;;;;;;;;4991266;28;20050;-68
2022/06/15 02:13:27;;;;;;;4.13;3.72;;;;;;;;;;4991639;28;20054;-68
2022/06/15 02:16:03;;;;;;;6.07;4.25;;;;;;;;;;4991575;28;20050;-67
2022/06/15 02:18:30;;;;;;;6.25;3.95;;;;;;;;;;4992833;28;20482;-67
2022/06/15 02:20:59;;;;;;;5.40;3.72;;;;;;;;;;4991121;28;20053;-68
2022/06/15 02:23:25;;;;;;;6.70;4.15;;;;;;;;;;4991269;28;20050;-68
2022/06/15 02:25:52;;;;;;;9.43;3.88;;;;;;;;;;4975447;28;20054;-68
2022/06/15 02:28:20;;;;;;;4.75;4.03;;;;;;;;;;4991390;28;20104;-68
2022/06/15 02:30:46;;;;;;;9.57;4.20;;;;;;;;;;4991074;28;20694;-68
2022/06/15 02:33:19;;;;;;;3.90;3.58;;;;;;;;;;5010128;28;20054;-68
2022/06/15 02:35:46;;;;;;;6.75;3.70;;;;;;;;;;4996470;28;20051;-68
2022/06/15 02:38:12;;;;;;;6.40;4.35;;;;;;;;;;5007355;28;20329;-68
2022/06/15 02:40:39;;;;;;;6.80;4.00;;;;;;;;;;5016128;28;20053;-68
2022/06/15 02:43:06;;;;;;;7.90;4.30;;;;;;;;;;5015861;28;20058;-68
2022/06/15 02:45:37;;;;;;;7.00;4.28;;;;;;;;;;5014684;28;20056;-68
2022/06/15 02:48:05;;;;;;;5.03;4.10;;;;;;;;;;5005381;28;20100;-68
2022/06/15 02:50:34;;;;;;;7.38;4.78;;;;;;;;;;4994865;28;20050;-68
2022/06/15 02:53:06;;;;;;;5.20;4.25;;;;;;;;;;4978859;28;20054;-68
2022/06/15 02:55:36;;;;;;;5.30;3.97;;;;;;;;;;4995088;28;20104;-68
2022/06/15 02:58:08;;;;;;;8.32;4.82;;;;;;;;;;5003953;28;20058;-68
2022/06/15 03:00:35;;;;;;;6.40;4.45;;;;;;;;;;5015970;28;20464;-68
2022/06/15 03:03:02;;;;;;;6.57;4.38;;;;;;;;;;5015568;28;20050;-67
2022/06/15 03:05:29;;;;;;;6.32;4.22;;;;;;;;;;5015743;28;20054;-68
2022/06/15 03:07:55;;;;;;;8.00;4.55;;;;;;;;;;5015623;28;20081;-67
2022/06/15 03:10:22;;;;;;;9.65;5.07;;;;;;;;;;5015628;28;20394;-69
2022/06/15 03:12:49;;;;;;;8.10;4.00;;;;;;;;;;5015378;28;20057;-67
2022/06/15 03:15:15;;;;;;;5.53;4.43;;;;;;;;;;5015402;28;20058;-68
2022/06/15 03:17:42;;;;;;;12.10;4.60;;;;;;;;;;5009148;28;20048;-68
2022/06/15 03:20:10;;;;;;;6.43;4.68;;;;;;;;;;4995710;28;20042;-67
2022/06/15 03:22:37;;;;;;;8.20;4.82;;;;;;;;;;4994560;28;20412;-67
2022/06/15 03:25:04;;;;;;;6.65;4.70;;;;;;;;;;4995673;28;20406;-68
2022/06/15 03:27:31;;;;;;;5.55;4.60;;;;;;;;;;4995653;28;20050;-68
2022/06/15 03:29:58;;;;;;;7.22;4.10;;;;;;;;;;4995336;28;20058;-68
2022/06/15 03:32:24;;;;;;;5.00;4.38;;;;;;;;;;4995727;28;20054;-68
2022/06/15 03:34:51;;;;;;;8.70;4.70;;;;;;;;;;4995584;28;20085;-67
2022/06/15 03:37:18;;;;;;;5.43;4.55;;;;;;;;;;4997754;28;20046;-67
2022/06/15 03:39:44;;;;;;;7.72;4.95;;;;;;;;;;5015327;28;20463;-68
2022/06/15 03:42:17;;;;;;;8.70;5.15;;;;;;;;;;5014625;28;20054;-68
2022/06/15 03:44:44;;;;;;;4.75;4.30;;;;;;;;;;5014393;28;20459;-68
2022/06/15 03:47:17;;;;;;;6.60;5.30;;;;;;;;;;5014361;28;20076;-68
2022/06/15 03:49:48;;;;;;;5.32;4.53;;;;;;;;;;5014911;28;20077;-68
2022/06/15 03:52:16;;;;;;;6.25;4.50;;;;;;;;;;5014598;28;20050;-68
2022/06/15 03:54:43;;;;;;;6.05;4.38;;;;;;;;;;5014667;28;20105;-69
2022/06/15 03:57:11;;;;;;;6.60;4.65;;;;;;;;;;5013642;28;20468;-70
2022/06/15 03:59:39;;;;;;;7.60;4.40;;;;;;;;;;4993967;28;20386;-70
2022/06/15 04:02:06;;;;;;;9.68;4.93;;;;;;;;;;5003763;28;20050;-70
2022/06/15 04:04:33;;;;;;;7.07;4.68;;;;;;;;;;5014429;28;20128;-70
2022/06/15 04:07:00;;;;;;;7.20;5.10;;;;;;;;;;5014524;28;20054;-70
2022/06/15 04:09:27;;;;;;;5.38;4.20;;;;;;;;;;5014165;28;20046;-70
2022/06/15 04:12:02;;;;;;;6.97;4.72;;;;;;;;;;5014110;28;20523;-70
2022/06/15 04:14:29;;;;;;;6.47;4.53;;;;;;;;;;5014357;28;20054;-70
2022/06/15 04:16:56;;;;;;;8.32;4.82;;;;;;;;;;5014397;28;20050;-70
2022/06/15 04:19:25;;;;;;;4.82;4.32;;;;;;;;;;5014185;28;20060;-70
2022/06/15 04:21:52;;;;;;;6.93;4.32;;;;;;;;;;5014224;28;20050;-70
2022/06/15 04:24:19;;;;;;;7.55;5.22;;;;;;;;;;5014047;28;20472;-70
2022/06/15 04:26:47;;;;;;;6.18;4.53;;;;;;;;;;5014222;28;20050;-70
2022/06/15 04:29:15;;;;;;;7.57;4.57;;;;;;;;;;5014011;28;20054;-70
2022/06/15 04:31:42;;;;;;;5.53;4.18;;;;;;;;;;5006689;28;20042;-70
2022/06/15 04:34:09;;;;;;;6.30;4.03;;;;;;;;;;5004908;28;20054;-70
2022/06/15 04:36:38;;;;;;;6.28;4.65;;;;;;;;;;5013742;28;20046;-70
2022/06/15 04:39:05;;;;;;;6.85;4.68;;;;;;;;;;5004594;28;20050;-69
2022/06/15 04:41:33;;;;;;;5.30;4.75;;;;;;;;;;4994464;28;20062;-69
2022/06/15 04:43:59;;;;;;;6.43;4.10;;;;;;;;;;4993932;28;20054;-69
2022/06/15 04:46:26;;;;;;;8.38;5.07;;;;;;;;;;4994090;28;20046;-69
2022/06/15 04:48:53;;;;;;;7.70;5.05;;;;;;;;;;4994012;28;20413;-71
2022/06/15 04:51:22;;;;;;;7.32;4.80;;;;;;;;;;4993876;28;20100;-67
2022/06/15 04:53:49;;;;;;;6.03;5.20;;;;;;;;;;4994067;28;20097;-71
2022/06/15 04:56:16;;;;;;;8.00;4.78;;;;;;;;;;4993104;28;20064;-69
2022/06/15 04:58:43;;;;;;;6.85;4.85;;;;;;;;;;5003229;28;20057;-69
2022/06/15 05:01:14;;;;;;;7.93;5.10;;;;;;;;;;5002847;28;20083;-69
2022/06/15 05:03:40;;;;;;;5.72;4.53;;;;;;;;;;4993953;28;20468;-69
2022/06/15 05:06:28;;;;;;;8.57;4.22;;;;;;;;;;4992719;28;20060;-69
2022/06/15 05:08:55;;;;;;;8.15;4.95;;;;;;;;;;4993877;28;20483;-69
2022/06/15 05:11:22;;;;;;;8.73;4.47;;;;;;;;;;4993541;28;20049;-69
2022/06/15 05:13:48;;;;;;;6.35;4.90;;;;;;;;;;4993438;28;20516;-69
2022/06/15 05:16:15;;;;;;;7.63;5.13;;;;;;;;;;4993476;28;20456;-69
2022/06/15 05:18:42;;;;;;;8.88;4.75;;;;;;;;;;5002195;28;20489;-69
2022/06/15 05:21:08;;;;;;;5.90;4.20;;;;;;;;;;5013023;28;20100;-69
2022/06/15 05:23:35;;;;;;;6.35;4.32;;;;;;;;;;5012804;28;20099;-69
2022/06/15 05:26:01;;;;;;;6.35;4.57;;;;;;;;;;5012989;28;20057;-69
2022/06/15 05:28:28;;;;;;;5.78;4.38;;;;;;;;;;5013011;28;20053;-69
2022/06/15 05:31:09;;;;;;;6.00;4.57;;;;;;;;;;5012389;28;20111;-69
2022/06/15 05:33:40;;;;;;;6.25;4.70;;;;;;;;;;5012762;28;20091;-69
2022/06/15 05:36:09;;;;;;;5.25;4.03;;;;;;;;;;5011899;28;20056;-69
2022/06/15 05:38:36;;;;;;;5.72;4.18;;;;;;;;;;5006887;28;20050;-69
2022/06/15 05:41:04;;;;;;;8.80;5.22;;;;;;;;;;4992758;28;20046;-69
2022/06/15 05:43:33;;;;;;;6.53;4.82;;;;;;;;;;4992974;28;20054;-69
2022/06/15 05:46:03;;;;;;;8.85;5.55;;;;;;;;;;4992907;28;20058;-69
2022/06/15 05:48:30;;;;;;;6.95;4.32;;;;;;;;;;4998044;28;20057;-69
2022/06/15 05:50:56;;;;;;;6.85;4.30;;;;;;;;;;5012378;28;20489;-69
2022/06/15 05:53:23;;;;;;;7.00;4.80;;;;;;;;;;5012591;28;20322;-69
2022/06/15 05:55:49;;;;;;;7.93;4.28;;;;;;;;;;5012427;28;20053;-69
2022/06/15 05:58:16;;;;;;;6.05;3.72;;;;;;;;;;5012632;28;20045;-69
2022/06/15 06:00:43;;;;;;;6.15;3.88;;;;;;;;;;5012135;28;20101;-69
2022/06/15 06:03:09;;;;;;;5.68;3.45;;;;;;;;;;5012394;28;20075;-69
2022/06/15 06:05:36;;;;;;;5.90;3.60;;;;;;;;;;5012318;28;20054;-69
2022/06/15 06:08:03;;;;;;;5.97;3.58;;;;;;;;;;5012019;28;20129;-69
2022/06/15 06:10:29;;;;;;;7.93;3.53;;;;;;;;;;5012086;28;20562;-69
2022/06/15 06:12:56;;;;;;;6.35;3.75;;;;;;;;;;5012259;28;20050;-69
2022/06/15 06:15:23;;;;;;;8.27;3.38;;;;;;;;;;5012279;28;20464;-69
2022/06/15 06:17:49;;;;;;;7.10;4.00;;;;;;;;;;5012443;28;20420;-69
2022/06/15 06:20:16;;;;;;;8.18;3.70;;;;;;;;;;4995147;28;20050;-69
2022/06/15 06:22:42;;;;;;;5.45;3.33;;;;;;;;;;4992342;28;20199;-69
2022/06/15 06:25:10;;;;;;;3.97;3.45;;;;;;;;;;4992284;28;20054;-69
2022/06/15 06:27:36;;;;;;;6.85;3.42;;;;;;;;;;4992842;28;20101;-69
2022/06/15 06:30:04;;;;;;;5.38;3.33;;;;;;;;;;5025809;23;20041;-69
2022/06/15 06:32:31;;;;;;;6.85;3.20;;;;;;;;;;5031630;28;20076;-69
2022/06/15 06:34:58;;;;;;;8.90;3.25;;;;;;;;;;5032132;28;20527;-69
2022/06/15 06:37:25;;;;;;;5.07;3.33;;;;;;;;;;5031571;28;20060;-69
2022/06/15 06:39:54;;;;;;;5.72;3.63;;;;;;;;;;5030058;28;20056;-69
2022/06/15 06:42:21;;;;;;;7.18;3.38;;;;;;;;;;5031648;28;20065;-69
2022/06/15 06:44:47;;;;;;;4.97;3.08;;;;;;;;;;5031712;28;20516;-69
2022/06/15 06:47:14;;;;;;;6.90;2.90;;;;;;;;;;5031600;28;20496;-69
2022/06/15 06:49:41;;;;;;;5.45;2.90;;;;;;;;;;5028717;28;20389;-70
2022/06/15 06:52:08;;;;;;;4.88;2.80;;;;;;;;;;5029331;28;20056;-70
2022/06/15 06:54:35;;;;;;;3.55;2.63;;;;;;;;;;5029902;28;20053;-69
2022/06/15 06:57:02;;;;;;;6.95;2.88;;;;;;;;;;5027116;28;20056;-69
2022/06/15 06:59:28;;;;;;;6.05;3.33;;;;;;;;;;5009712;28;20054;-68
2022/06/15 07:01:55;;;;;;;4.20;2.83;;;;;;;;;;5009107;28;20057;-68
2022/06/15 07:04:22;;;;;;;3.60;2.35;;;;;;;;;;5009466;28;20050;-68
2022/06/15 07:06:49;;;;;;;4.38;2.78;;;;;;;;;;5013383;28;20087;-68
2022/06/15 07:09:15;;;;;;;4.40;2.83;;;;;;;;;;5029361;28;20049;-68
2022/06/15 07:11:43;;;;;;;6.07;3.03;;;;;;;;;;5029445;28;20064;-68
2022/06/15 07:14:10;;;;;;;5.13;2.85;;;;;;;;;;5028960;28;20132;-68
2022/06/15 07:16:39;;;;;;;7.50;2.92;;;;;;;;;;5029258;28;20446;-68
2022/06/15 07:19:06;;;;;;;7.53;2.90;;;;;;;;;;5029774;28;20057;-68
2022/06/15 07:21:33;;;;;;;3.58;2.45;;;;;;;;;;5033085;28;20049;-68
2022/06/15 07:24:00;;;;;;;6.38;2.90;;;;;;;;;;5033148;28;20057;-68
2022/06/15 07:26:30;;;;;;;8.32;3.30;;;;;;;;;;5032844;28;20492;-68
2022/06/15 07:28:57;;;;;;;4.13;2.42;;;;;;;;;;5032454;28;20064;-68
2022/06/15 07:31:27;;;;;;;8.85;3.38;;;;;;;;;;5032669;28;20455;-68
2022/06/15 07:33:54;;;;;;;5.55;2.70;;;;;;;;;;5032964;28;20118;-68
2022/06/15 07:36:23;;;;;;;5.55;2.75;;;;;;;;;;5032711;28;20558;-68
2022/06/15 07:38:54;;;;;;;5.00;2.75;;;;;;;;;;5032852;28;20073;-68
2022/06/15 07:41:21;;;;;;;5.95;2.70;;;;;;;;;;5032098;28;20053;-68
2022/06/15 07:43:48;;;;;;;3.08;2.38;;;;;;;;;;5031746;28;20053;-69
2022/06/15 07:46:16;;;;;;;3.50;2.50;;;;;;;;;;5032379;28;20061;-69
2022/06/15 07:51:46;;;;;;;4.28;2.42;;;;;;;;;;5012699;28;20094;-68
2022/06/15 07:54:15;;;;;;;5.82;2.78;;;;;;;;;;5012088;28;20112;-67
2022/06/15 07:56:42;;;;;;;5.85;2.97;;;;;;;;;;5014582;28;20058;-66
2022/06/15 07:59:09;;;;;;;4.13;2.83;;;;;;;;;;5032207;28;20467;-66
2022/06/15 08:01:36;;;;;;;6.78;2.95;;;;;;;;;;5023732;28;20053;-66
2022/06/15 08:04:04;;;;;;;5.22;3.00;;;;;;;;;;5012355;28;20136;-67
2022/06/15 08:06:31;;;;;;;3.80;2.30;;;;;;;;;;5010949;28;20329;-66
2022/06/15 08:08:58;;;;;;;6.95;2.78;;;;;;;;;;5011063;28;20050;-67
2022/06/15 08:11:24;;;;;;;6.18;2.97;;;;;;;;;;5014644;28;20116;-66
2022/06/15 08:13:51;;;;;;;5.00;2.55;;;;;;;;;;5029155;28;20463;-70
2022/06/15 08:16:19;;;;;;;5.35;2.45;;;;;;;;;;5021969;28;20057;-65
2022/06/15 08:18:56;;;;;;;4.32;2.88;;;;;;;;;;5020885;28;20816;-64
2022/06/15 08:21:25;;;;;;;6.18;3.35;;;;;;;;;;5019870;28;20049;-64
2022/06/15 08:23:53;;;;;;;5.22;2.67;;;;;;;;;;5004413;28;20069;-68
2022/06/15 08:26:23;;;;;;;5.60;2.60;;;;;;;;;;5017713;28;20049;-64
2022/06/15 08:28:56;;;;;;;6.18;2.83;;;;;;;;;;5019254;28;20042;-64
2022/06/15 08:31:24;;;;;;;4.45;2.70;;;;;;;;;;5026200;28;20563;-64
2022/06/15 08:33:51;;;;;;;4.53;2.70;;;;;;;;;;5024403;28;20049;-65
2022/06/15 08:36:19;;;;;;;3.28;2.25;;;;;;;;;;5020573;28;20046;-65
2022/06/15 08:38:46;;;;;;;4.85;2.60;;;;;;;;;;5019917;28;20058;-64
2022/06/15 08:41:28;;;;;;;5.60;2.47;;;;;;;;;;5016055;28;20050;-65
2022/06/15 08:44:52;;;;;;;3.70;2.60;;;;;;;;;;5019447;28;20510;-65
2022/06/15 08:47:28;;;;;;;4.75;2.30;;;;;;;;;;4982561;28;20049;-67
2022/06/15 08:50:04;;;;;;;5.05;2.22;;;;;;;;;;5019037;28;20041;-67
2022/06/15 08:52:41;;;;;;;4.78;2.50;;;;;;;;;;5016641;28;20057;-64
2022/06/15 08:55:15;;;;;;;8.98;2.90;;;;;;;;;;5018466;28;20304;-67
2022/06/15 08:57:49;;;;;;;4.15;2.38;;;;;;;;;;5019516;28;20049;-66
2022/06/15 09:00:25;;;;;;;4.30;2.65;;;;;;;;;;4998993;28;20197;-66
2022/06/15 09:03:13;;;;;;;5.10;2.65;;;;;;;;;;5022281;28;20459;-67
2022/06/15 09:05:55;;;;;;;3.78;2.90;;;;;;;;;;5021202;28;20042;-67
2022/06/15 09:08:35;;;;;;;5.95;3.00;;;;;;;;;;5041687;28;20456;-67
2022/06/15 09:11:15;;;;;;;5.53;2.47;;;;;;;;;;5022541;28;20412;-69
2022/06/15 09:13:47;;;;;;;4.80;3.20;;;;;;;;;;5018918;28;20099;-66
2022/06/15 09:16:26;;;;;;;4.78;2.63;;;;;;;;;;5018963;28;20054;-67
2022/06/15 09:19:06;;;;;;;4.13;2.17;;;;;;;;;;5018758;28;20046;-66
2022/06/15 09:21:37;;;;;;;4.88;2.50;;;;;;;;;;5020320;28;20045;-65
2022/06/15 09:24:11;;;;;;;5.20;2.75;;;;;;;;;;5018264;28;20053;-66
2022/06/15 09:26:46;;;;;;;3.97;2.50;;;;;;;;;;5018448;28;20053;-66
2022/06/15 09:29:17;;;;;;;4.50;2.42;;;;;;;;;;5016830;28;20064;-65
2022/06/15 09:31:50;;;;;;;4.28;2.45;;;;;;;;;;5017932;28;20046;-67
2022/06/15 09:34:30;;;;;;;5.82;2.60;;;;;;;;;;5002569;28;20140;-67
2022/06/15 09:36:57;;;;;;;5.85;2.28;;;;;;;;;;5017952;28;20049;-67
2022/06/15 09:39:29;;;;;;;4.25;2.13;;;;;;;;;;5019656;28;20463;-66
2022/06/15 09:42:12;;;;;;;3.10;2.28;;;;;;;;;;5047386;22;20045;-68
2022/06/15 09:44:47;;;;;;;3.88;2.50;;;;;;;;;;5026951;28;20143;-68
2022/06/15 09:47:32;;;;;;;5.25;2.95;;;;;;;;;;5027344;28;20046;-68
2022/06/15 09:50:25;;;;;;;5.20;2.47;;;;;;;;;;5026558;28;20045;-68
2022/06/15 09:53:00;;;;;;;;;;;;;;;;;;5028981;28;20119;-68
2022/06/15 09:55:37;;;;;;;5.10;2.35;;;;;;;;;;5030447;28;19971;-68
2022/06/15 09:58:27;;;;;;;5.25;2.67;;;;;;;;;;5015983;28;20057;-68
2022/06/15 10:00:54;;;;;;;4.80;2.40;;;;;;;;;;5029117;28;20042;-67
2022/06/15 10:03:24;;;;;;;3.25;2.20;;;;;;;;;;5012622;28;20532;-68
2022/06/15 10:05:53;;;;;;;5.20;2.40;;;;;;;;;;5029944;28;20049;-68
2022/06/15 10:08:20;;;;;;;3.30;2.10;;;;;;;;;;5012911;28;20107;-68
2022/06/15 10:10:55;;;;;;;2.55;1.80;;;;;;;;;;5028892;28;20049;-69
2022/06/15 10:13:21;;;;;;;2.80;2.10;;;;;;;;;;5028429;28;20054;-69
2022/06/15 10:15:57;;;;;;;5.47;2.25;;;;;;;;;;5028802;28;20551;-69
2022/06/15 10:18:30;;;;;;;3.42;1.80;;;;;;;;;;5019227;28;20052;-69
2022/06/15 10:21:04;;;;;;;3.65;2.20;;;;;;;;;;5029620;28;20045;-69
2022/06/15 10:23:58;;;;;;;3.92;1.73;;;;;;;;;;5030193;28;20045;-72
2022/06/15 10:26:27;;;;;;;5.63;2.92;;;;;;;;;;5029760;28;20107;-69
2022/06/15 10:28:55;;;;;;;5.65;2.40;;;;;;;;;;5011925;28;20053;-69
2022/06/15 10:31:32;;;;;;;3.67;2.15;;;;;;;;;;5028255;28;20536;-68
2022/06/15 10:34:25;;;;;;;2.45;2.10;;;;;;;;;;5024156;28;20573;-69
2022/06/15 10:36:54;;;;;;;4.28;2.00;;;;;;;;;;5024414;28;20056;-69
2022/06/15 10:39:27;;;;;;;2.65;2.00;;;;;;;;;;5033042;28;20420;-69
2022/06/15 10:42:16;;;;;;;1.95;1.77;;;;;;;;;;5010667;28;20080;-69
2022/06/15 10:44:51;;;;;;;3.95;1.85;;;;;;;;;;5015721;28;20061;-69
2022/06/15 10:47:21;;;;;;;2.22;1.95;;;;;;;;;;5020521;28;20057;-68
2022/06/15 10:50:00;;;;;;;4.00;2.30;;;;;;;;;;5028498;28;20061;-66
2022/06/15 10:52:28;;;;;;;4.20;1.98;;;;;;;;;;5024828;28;20056;-69
2022/06/15 11:03:42;;;;;;;4.35;2.20;;;;;;;;;;5034759;28;20049;-69
2022/06/15 11:06:09;;;;;;;4.75;2.17;;;;;;;;;;5033437;28;20056;-69
2022/06/15 11:08:40;;;;;;;2.22;1.70;;;;;;;;;;5036444;28;20855;-69
2022/06/15 11:11:26;;;;;;;5.97;2.43;;;;;;;;;;5033686;28;20566;-69
2022/06/15 11:13:58;;;;;;;5.78;2.30;;;;;;;;;;5016597;28;20041;-69
2022/06/15 11:19:16;;;;;;;4.22;1.90;;;;;;;;;;5032342;28;20053;-69
2022/06/15 11:21:52;;;;;;;3.83;2.20;;;;;;;;;;5016043;28;20071;-69
2022/06/15 11:24:35;;;;;;;3.58;1.88;;;;;;;;;;5029616;28;20057;-70
2022/06/15 11:27:29;;;;;;;4.63;1.92;;;;;;;;;;5029687;28;20049;-69
2022/06/15 11:30:07;;;;;;;3.58;2.10;;;;;;;;;;5012590;28;20520;-69
2022/06/15 11:32:43;;;;;;;9.75;2.25;;;;;;;;;;5031954;28;20168;-69
2022/06/15 11:35:12;;;;;;;3.45;1.80;;;;;;;;;;5033519;28;20099;-69
2022/06/15 11:37:46;;;;;;;3.42;2.40;;;;;;;;;;5031938;28;20047;-69
2022/06/15 11:40:35;;;;;;;3.20;2.00;;;;;;;;;;5031619;28;20128;-70
2022/06/15 11:43:16;;;;;;;4.53;1.73;;;;;;;;;;5017556;28;20127;-69
2022/06/15 11:46:02;;;;;;;5.45;2.28;;;;;;;;;;5025808;28;20104;-68
2022/06/15 11:48:49;;;;;;;2.70;1.90;;;;;;;;;;5028661;28;20104;-68
2022/06/15 11:51:26;;;;;;;4.78;2.03;;;;;;;;;;5008817;28;20136;-68
2022/06/15 11:54:15;;;;;;;2.50;2.00;;;;;;;;;;5033170;28;20045;-69
2022/06/15 11:56:54;;;;;;;4.20;1.90;;;;;;;;;;5024220;28;20054;-68
2022/06/15 11:59:43;;;;;;;3.20;1.88;;;;;;;;;;5015561;28;20083;-69
2022/06/15 12:02:21;;;;;;;4.03;1.40;;;;;;;;;;5031407;28;20053;-68
2022/06/15 12:05:43;;;;;;;4.65;2.03;;;;;;;;;;5011918;28;20049;-69
2022/06/15 12:08:09;;;;;;;3.65;1.90;;;;;;;;;;4979830;28;20568;-68
2022/06/15 12:10:48;;;;;;;2.78;1.90;;;;;;;;;;5026033;28;20103;-69
2022/06/15 12:13:24;;;;;;;5.07;2.00;;;;;;;;;;5030674;28;20053;-69
2022/06/15 12:16:12;;;;;;;3.78;1.70;;;;;;;;;;5029352;28;20132;-69
2022/06/15 12:18:53;;;;;;;3.85;1.75;;;;;;;;;;5029786;28;20049;-69
2022/06/15 12:21:29;;;;;;;4.05;1.67;;;;;;;;;;5030308;28;20076;-69
2022/06/15 12:24:04;;;;;;;2.58;1.70;;;;;;;;;;5031537;28;20053;-69
2022/06/15 12:27:07;;;;;;;4.88;2.03;;;;;;;;;;5004306;28;20096;-66
2022/06/15 12:29:51;;;;;;;3.40;1.95;;;;;;;;;;5012367;28;20108;-66
2022/06/15 12:32:41;;;;;;;3.17;1.70;;;;;;;;;;5013576;28;20100;-66
2022/06/15 12:35:34;;;;;;;4.65;1.60;;;;;;;;;;5012446;28;20475;-66
2022/06/15 12:38:17;;;;;;;3.80;1.58;;;;;;;;;;5012553;28;20058;-66
2022/06/15 12:41:01;;;;;;;1.80;1.50;;;;;;;;;;5013451;28;20053;-66
2022/06/15 12:43:46;;;;;;;3.78;1.60;;;;;;;;;;5012470;28;20513;-66
2022/06/15 12:46:16;;;;;;;1.95;1.35;;;;;;;;;;5020413;28;20045;-67
2022/06/15 12:49:07;;;;;;;1.60;1.50;;;;;;;;;;5033419;28;20511;-66
2022/06/15 12:51:46;;;;;;;2.25;1.60;;;;;;;;;;5032097;28;20096;-67
2022/06/15 12:54:21;;;;;;;2.25;1.48;;;;;;;;;;5016166;28;20050;-66
2022/06/15 12:56:57;;;;;;;3.38;2.03;;;;;;;;;;5019915;28;20050;-67
2022/06/15 12:59:36;;;;;;;3.38;1.90;;;;;;;;;;5011835;28;20056;-69
2022/06/15 13:02:34;;;;;;;2.95;1.42;;;;;;;;;;5011902;28;20042;-68
2022/06/15 13:05:25;;;;;;;2.65;1.90;;;;;;;;;;4997384;28;20103;-65
2022/06/15 13:08:17;;;;;;;2.67;1.40;;;;;;;;;;5012362;28;20058;-65
2022/06/15 13:11:08;;;;;;;2.20;1.30;;;;;;;;;;5013088;28;20092;-67
2022/06/15 13:13:46;;;;;;;3.80;1.77;;;;;;;;;;5012029;28;20050;-65
2022/06/15 13:16:29;;;;;;;2.83;2.00;;;;;;;;;;5015561;28;20271;-65
2022/06/15 13:18:56;;;;;;;2.30;1.40;;;;;;;;;;5011575;28;20104;-65
2022/06/15 13:21:27;;;;;;;2.88;1.58;;;;;;;;;;5000628;28;20057;-64
2022/06/15 13:23:57;;;;;;;2.17;1.50;;;;;;;;;;5023108;28;20368;-67
2022/06/15 13:26:31;;;;;;;2.65;1.60;;;;;;;;;;5017452;28;20050;-65
2022/06/15 13:28:58;;;;;;;3.13;1.70;;;;;;;;;;5031607;28;20049;-65
2022/06/15 13:31:44;;;;;;;3.85;1.73;;;;;;;;;;5028266;28;20057;-65
2022/06/15 13:34:17;;;;;;;3.78;1.88;;;;;;;;;;5014544;28;20050;-64
2022/06/15 13:37:15;;;;;;;2.65;1.45;;;;;;;;;;5022567;28;20403;-64
2022/06/15 13:39:45;;;;;;;1.98;1.60;;;;;;;;;;5016573;28;20057;-65
2022/06/15 13:42:35;;;;;;;1.97;1.40;;;;;;;;;;5022268;28;20052;-65
2022/06/15 13:45:07;;;;;;;2.40;1.30;;;;;;;;;;5029333;28;20045;-65
2022/06/15 13:47:52;;;;;;;2.45;1.50;;;;;;;;;;5028349;28;20050;-65
2022/06/15 13:50:31;;;;;;;4.72;1.92;;;;;;;;;;5012491;28;20060;-64
2022/06/15 13:52:59;;;;;;;4.38;1.80;;;;;;;;;;4998206;28;20045;-65
2022/06/15 13:55:40;;;;;;;2.20;1.50;;;;;;;;;;5023847;28;20099;-65
2022/06/15 13:58:12;;;;;;;1.50;1.40;;;;;;;;;;5018783;28;20054;-65
2022/06/15 14:00:48;;;;;;;2.35;1.48;;;;;;;;;;5014624;28;20544;-65
2022/06/15 14:03:30;;;;;;;3.10;1.50;;;;;;;;;;5021941;28;20079;-65
2022/06/15 14:06:11;;;;;;;2.50;1.45;;;;;;;;;;5030941;28;20049;-65
2022/06/15 14:08:59;;;;;;;2.90;1.40;;;;;;;;;;5031222;28;20099;-65
2022/06/15 14:11:49;;;;;;;2.05;1.40;;;;;;;;;;5030762;28;20049;-64
2022/06/15 14:14:28;;;;;;;5.93;1.60;;;;;;;;;;5030736;28;20057;-65
2022/06/15 14:17:16;;;;;;;1.75;1.17;;;;;;;;;;5011118;28;20061;-65
2022/06/15 14:19:56;;;;;;;3.97;1.80;;;;;;;;;;5026491;28;20088;-65
2022/06/15 14:22:23;;;;;;;2.85;1.40;;;;;;;;;;5026431;28;20050;-69
2022/06/15 14:25:05;;;;;;;2.78;1.55;;;;;;;;;;5013112;28;20052;-69
2022/06/15 14:27:34;;;;;;;2.38;1.27;;;;;;;;;;5034131;28;20079;-68
2022/06/15 14:30:02;;;;;;;2.15;1.50;;;;;;;;;;5025856;28;20111;-68
2022/06/15 14:32:31;;;;;;;2.53;1.73;;;;;;;;;;5029367;28;20045;-72
2022/06/15 14:35:20;;;;;;;3.08;2.10;;;;;;;;;;5029034;28;20848;-70
2022/06/15 14:37:57;;;;;;;2.78;2.05;;;;;;;;;;5025705;28;20041;-70
2022/06/15 14:40:39;;;;;;;5.47;1.70;;;;;;;;;;5028177;28;20091;-71
2022/06/15 14:43:08;;;;;;;3.63;1.80;;;;;;;;;;5029323;28;20053;-70
2022/06/15 14:45:40;;;;;;;3.78;1.58;;;;;;;;;;5028856;28;20095;-70
2022/06/15 14:48:12;;;;;;;2.47;2.00;;;;;;;;;;5030426;28;20562;-70
2022/06/15 14:50:41;;;;;;;2.22;1.92;;;;;;;;;;5028405;28;20057;-71
2022/06/15 14:53:17;;;;;;;2.88;1.80;;;;;;;;;;5026339;28;20069;-70
2022/06/15 14:55:47;;;;;;;2.90;1.83;;;;;;;;;;5030367;28;20053;-65
2022/06/15 14:58:18;;;;;;;2.40;1.70;;;;;;;;;;5029768;28;20053;-68
2022/06/15 15:00:46;;;;;;;2.05;1.85;;;;;;;;;;5028184;28;20119;-69
2022/06/15 15:03:27;;;;;;;2.35;1.70;;;;;;;;;;5029855;28;20053;-69
2022/06/15 15:05:54;;;;;;;3.55;2.08;;;;;;;;;;5026945;28;20057;-69
2022/06/15 15:08:29;;;;;;;3.28;1.80;;;;;;;;;;5028615;28;20132;-69
2022/06/15 15:11:03;;;;;;;2.65;2.00;;;;;;;;;;5029253;28;20088;-67
2022/06/15 15:13:34;;;;;;;3.08;1.85;;;;;;;;;;5030105;28;20080;-66
2022/06/15 15:16:07;;;;;;;2.97;1.90;;;;;;;;;;5029444;28;20056;-68
2022/06/15 15:18:37;;;;;;;2.67;2.00;;;;;;;;;;5029737;28;20053;-69
2022/06/15 15:21:30;;;;;;;3.65;1.75;;;;;;;;;;5028781;28;20053;-72
2022/06/15 15:24:21;;;;;;;3.78;2.20;;;;;;;;;;5028228;28;20499;-68
2022/06/15 15:26:56;;;;;;;3.45;1.98;;;;;;;;;;5022061;28;20076;-71
2022/06/15 15:35:45;;;;;;;2.28;1.92;;;;;;;;;;5028805;28;20107;-72
2022/06/15 15:38:32;;;;;;;5.10;2.08;;;;;;;;;;5027875;28;20476;-65
2022/06/15 15:41:02;;;;;;;2.25;1.75;;;;;;;;;;5031060;28;20061;-66